Time;durP1;ratioP1;P1;durP2;ratioP2;P2;SDS_P1;SDS_P2;PMS_P1;PMS_P2;Temp;Humidity;BMP_temperature;BMP_pressure;BME280_temperature;BME280_humidity;BME280_pressure;Samples;Min_cycle;Max_cycle;Signal;HPM_P1;HPM_P2
2021/09/21 00:01:59;;;;;;;0.40;0.20;;;12.10;99.90;;;;;;5013265;28;20381;-74
2021/09/21 00:04:27;;;;;;;0.40;0.20;;;12.00;99.90;;;;;;5013547;28;20392;-73
2021/09/21 00:06:56;;;;;;;0.40;0.20;;;11.90;99.90;;;;;;5017125;28;20375;-73
2021/09/21 00:09:22;;;;;;;0.40;0.40;;;11.90;99.90;;;;;;5033560;28;20394;-73
2021/09/21 00:11:49;;;;;;;0.40;0.20;;;12.00;99.90;;;;;;5033183;28;20395;-74
2021/09/21 00:14:15;;;;;;;0.40;0.20;;;11.80;99.90;;;;;;5033013;28;20405;-73
2021/09/21 00:16:41;;;;;;;0.40;0.30;;;11.80;99.90;;;;;;5033338;28;20441;-73
2021/09/21 00:19:06;;;;;;;0.40;0.20;;;11.80;99.90;;;;;;5032746;28;20383;-73
2021/09/21 00:21:32;;;;;;;0.40;0.20;;;11.70;99.90;;;;;;5033192;28;20448;-74
2021/09/21 00:23:58;;;;;;;0.40;0.20;;;11.80;99.90;;;;;;5032701;28;20391;-74
2021/09/21 00:26:23;;;;;;;0.40;0.20;;;11.80;99.90;;;;;;5033228;28;20386;-73
2021/09/21 00:28:49;;;;;;;0.40;0.20;;;11.80;99.90;;;;;;5033148;28;20387;-73
2021/09/21 00:31:15;;;;;;;0.40;0.20;;;11.70;99.90;;;;;;5032658;28;20391;-73
2021/09/21 00:33:49;;;;;;;0.40;0.30;;;11.70;99.90;;;;;;5032968;28;20375;-73
2021/09/21 00:36:16;;;;;;;0.40;0.20;;;11.60;99.90;;;;;;5032473;28;20394;-73
2021/09/21 00:38:42;;;;;;;0.40;0.20;;;11.70;99.90;;;;;;5032894;28;20391;-73
2021/09/21 00:41:08;;;;;;;0.40;0.30;;;11.80;99.90;;;;;;5014427;28;20415;-73
2021/09/21 00:43:34;;;;;;;0.40;0.30;;;11.80;99.90;;;;;;5032742;28;20399;-74
2021/09/21 00:45:59;;;;;;;0.40;0.20;;;11.80;99.90;;;;;;5032211;28;20705;-74
2021/09/21 00:48:25;;;;;;;0.40;0.30;;;11.90;99.90;;;;;;5032396;28;20429;-74
2021/09/21 00:50:51;;;;;;;0.40;0.20;;;11.90;99.90;;;;;;5032735;28;20430;-74
2021/09/21 00:53:17;;;;;;;0.40;0.30;;;11.90;99.90;;;;;;5031733;28;20394;-74
2021/09/21 00:55:44;;;;;;;0.40;0.20;;;12.00;99.90;;;;;;5032734;28;20387;-74
2021/09/21 00:58:09;;;;;;;0.40;0.30;;;12.00;99.90;;;;;;5031960;28;20434;-74
2021/09/21 01:00:35;;;;;;;0.40;0.20;;;12.00;99.90;;;;;;5032194;28;20447;-74
2021/09/21 01:03:01;;;;;;;0.40;0.20;;;11.90;99.90;;;;;;5031932;28;20409;-74
2021/09/21 01:05:26;;;;;;;0.40;0.30;;;11.90;99.90;;;;;;5032544;28;20860;-74
2021/09/21 01:07:52;;;;;;;0.40;0.20;;;11.90;99.90;;;;;;5019873;28;20749;-74
2021/09/21 01:10:25;;;;;;;0.40;0.20;;;12.00;99.90;;;;;;5011839;28;20492;-74
2021/09/21 01:12:52;;;;;;;0.40;0.30;;;11.90;99.90;;;;;;5012443;28;20413;-73
2021/09/21 01:15:18;;;;;;;0.40;0.20;;;11.90;99.90;;;;;;5011981;28;20404;-74
2021/09/21 01:17:45;;;;;;;0.40;0.20;;;12.00;99.90;;;;;;5012450;28;20467;-74
2021/09/21 01:20:12;;;;;;;0.40;0.20;;;12.00;99.90;;;;;;5011765;28;20804;-74
2021/09/21 01:22:38;;;;;;;0.40;0.30;;;12.00;99.90;;;;;;5012621;28;20385;-74
2021/09/21 01:25:06;;;;;;;0.40;0.20;;;12.00;99.90;;;;;;5011620;28;20477;-74
2021/09/21 01:27:32;;;;;;;0.40;0.20;;;12.00;99.90;;;;;;5011931;28;20917;-74
2021/09/21 01:29:57;;;;;;;0.40;0.20;;;11.90;99.90;;;;;;5012347;28;20484;-73
2021/09/21 01:32:23;;;;;;;0.40;0.30;;;11.90;99.90;;;;;;5011210;28;20789;-74
2021/09/21 01:34:49;;;;;;;0.40;0.30;;;11.90;99.90;;;;;;5012148;28;20789;-73
2021/09/21 01:37:15;;;;;;;0.40;0.30;;;11.90;99.90;;;;;;5011508;28;20384;-74
2021/09/21 01:39:41;;;;;;;0.40;0.20;;;11.80;99.90;;;;;;5012218;28;20496;-74
2021/09/21 01:42:07;;;;;;;0.40;0.20;;;11.90;99.90;;;;;;5011402;28;20396;-74
2021/09/21 01:44:32;;;;;;;0.40;0.30;;;12.00;99.90;;;;;;5011890;28;20381;-73
2021/09/21 01:47:02;;;;;;;0.40;0.20;;;12.10;99.90;;;;;;5011829;28;20888;-73
2021/09/21 01:49:34;;;;;;;0.40;0.20;;;12.10;99.90;;;;;;5011892;28;20726;-73
2021/09/21 02:00:13;;;;;;;0.40;0.20;;;12.10;99.90;;;;;;5010835;28;20888;-72
2021/09/21 02:02:39;;;;;;;0.40;0.30;;;12.20;99.90;;;;;;5011655;28;20476;-72
2021/09/21 02:05:05;;;;;;;0.40;0.30;;;12.10;99.90;;;;;;5011168;28;20376;-75
2021/09/21 02:07:31;;;;;;;0.40;0.20;;;12.00;99.90;;;;;;5021408;28;20473;-75
2021/09/21 02:09:56;;;;;;;0.40;0.30;;;12.00;99.90;;;;;;5031101;28;20895;-72
2021/09/21 02:12:22;;;;;;;0.40;0.30;;;11.90;99.90;;;;;;5030886;28;20439;-72
2021/09/21 02:14:48;;;;;;;0.40;0.20;;;12.00;99.90;;;;;;5031267;28;20474;-72
2021/09/21 02:17:13;;;;;;;0.40;0.30;;;11.90;99.90;;;;;;5013062;28;20735;-72
2021/09/21 02:19:40;;;;;;;0.40;0.30;;;11.90;99.90;;;;;;5030928;28;20425;-73
2021/09/21 02:22:06;;;;;;;0.40;0.30;;;12.00;99.90;;;;;;5030652;28;20386;-73
2021/09/21 02:24:32;;;;;;;0.40;0.20;;;12.10;99.90;;;;;;5031006;28;20386;-73
2021/09/21 02:26:58;;;;;;;0.40;0.20;;;12.30;99.90;;;;;;5031243;28;20379;-73
2021/09/21 02:29:25;;;;;;;0.40;0.30;;;12.20;99.90;;;;;;5031209;28;20855;-73
2021/09/21 02:31:51;;;;;;;0.40;0.30;;;12.30;99.90;;;;;;5035461;28;20713;-73
2021/09/21 02:34:17;;;;;;;0.40;0.20;;;12.30;99.90;;;;;;5016866;28;20394;-72
2021/09/21 02:36:42;;;;;;;0.40;0.27;;;12.20;99.90;;;;;;5035342;28;20429;-73
2021/09/21 02:39:09;;;;;;;0.40;0.20;;;12.30;99.90;;;;;;5034240;28;20379;-73
2021/09/21 02:41:35;;;;;;;0.40;0.30;;;12.40;99.90;;;;;;5034871;28;20917;-73
2021/09/21 02:44:00;;;;;;;0.40;0.20;;;12.40;99.90;;;;;;5034720;28;20391;-73
2021/09/21 02:46:26;;;;;;;0.40;0.28;;;12.50;99.90;;;;;;5034142;28;20383;-73
2021/09/21 02:48:52;;;;;;;0.40;0.20;;;12.50;99.90;;;;;;5034981;28;20387;-73
2021/09/21 02:51:17;;;;;;;0.40;0.30;;;12.40;99.90;;;;;;5034431;28;20382;-73
2021/09/21 02:53:43;;;;;;;0.40;0.20;;;12.30;99.90;;;;;;5034691;28;20379;-73
2021/09/21 02:56:09;;;;;;;0.40;0.20;;;12.40;99.90;;;;;;5034196;28;20398;-73
2021/09/21 02:58:34;;;;;;;0.40;0.30;;;12.40;99.90;;;;;;5034646;28;20828;-73
2021/09/21 03:01:00;;;;;;;0.40;0.20;;;12.40;99.90;;;;;;5034766;28;20455;-72
2021/09/21 03:03:31;;;;;;;0.40;0.20;;;12.30;99.90;;;;;;5033802;28;20386;-73
2021/09/21 03:06:01;;;;;;;0.40;0.20;;;12.40;99.90;;;;;;5034826;28;20371;-73
2021/09/21 03:08:30;;;;;;;0.40;0.20;;;12.40;99.90;;;;;;5016852;28;20475;-73
2021/09/21 03:18:50;;;;;;;0.40;0.20;;;12.40;99.90;;;;;;5014694;28;20868;-73
2021/09/21 03:21:16;;;;;;;0.40;0.30;;;12.40;99.90;;;;;;5014186;28;20416;-73
2021/09/21 03:23:42;;;;;;;0.40;0.30;;;12.40;99.90;;;;;;5014493;28;20424;-73
2021/09/21 03:26:07;;;;;;;0.40;0.20;;;12.30;99.90;;;;;;5013978;28;20742;-73
2021/09/21 03:28:33;;;;;;;0.40;0.20;;;12.30;99.90;;;;;;5014277;28;20734;-73
2021/09/21 03:30:59;;;;;;;0.40;0.20;;;12.30;99.90;;;;;;5014238;28;20389;-72
2021/09/21 03:33:24;;;;;;;0.40;0.30;;;12.20;99.90;;;;;;5013756;28;20388;-73
2021/09/21 03:35:50;;;;;;;0.40;0.20;;;12.20;99.90;;;;;;5014259;28;20870;-72
2021/09/21 03:38:16;;;;;;;0.80;0.60;;;12.20;99.90;;;;;;5013765;28;20842;-73
2021/09/21 03:40:42;;;;;;;0.40;0.20;;;12.20;99.90;;;;;;5013274;28;20513;-73
2021/09/21 03:43:08;;;;;;;0.40;0.20;;;12.20;99.90;;;;;;5013509;28;20475;-74
2021/09/21 03:45:34;;;;;;;0.40;0.30;;;12.20;99.90;;;;;;5014030;28;20504;-73
2021/09/21 03:47:59;;;;;;;0.40;0.20;;;12.20;99.90;;;;;;5014121;28;20880;-72
2021/09/21 03:50:25;;;;;;;0.40;0.30;;;12.10;99.90;;;;;;4995789;28;20405;-73
2021/09/21 03:52:51;;;;;;;0.40;0.20;;;12.10;99.90;;;;;;5014325;28;20385;-73
2021/09/21 03:55:17;;;;;;;0.40;0.20;;;11.90;99.90;;;;;;5013360;28;20427;-73
2021/09/21 03:57:43;;;;;;;0.40;0.20;;;11.80;99.90;;;;;;5013685;28;20826;-73
2021/09/21 04:00:10;;;;;;;0.40;0.20;;;11.80;99.90;;;;;;5012955;28;20523;-74
2021/09/21 04:02:35;;;;;;;0.40;0.20;;;11.60;99.90;;;;;;5014188;28;20723;-73
2021/09/21 04:05:01;;;;;;;0.40;0.30;;;11.60;99.90;;;;;;5013835;28;20385;-73
2021/09/21 04:07:27;;;;;;;0.40;0.20;;;11.50;99.90;;;;;;5021920;28;20391;-73
2021/09/21 04:09:52;;;;;;;0.60;0.50;;;11.50;99.90;;;;;;5033617;28;20855;-73
2021/09/21 04:12:18;;;;;;;0.40;0.20;;;11.40;99.90;;;;;;5033313;28;20391;-73
2021/09/21 04:14:43;;;;;;;0.40;0.20;;;11.40;99.90;;;;;;5033820;28;20404;-73
2021/09/21 04:17:09;;;;;;;0.40;0.20;;;11.50;99.90;;;;;;5033489;28;20387;-72
2021/09/21 04:19:35;;;;;;;0.40;0.20;;;11.50;99.90;;;;;;5013690;28;21411;-73
2021/09/21 04:22:01;;;;;;;0.40;0.30;;;11.40;99.90;;;;;;5028592;28;20403;-72
2021/09/21 04:24:26;;;;;;;0.40;0.20;;;11.30;99.90;;;;;;5031671;28;20474;-73
2021/09/21 04:26:52;;;;;;;0.40;0.20;;;11.40;99.90;;;;;;5032748;28;20391;-73
2021/09/21 04:29:18;;;;;;;0.40;0.25;;;11.40;99.90;;;;;;5031994;28;20375;-73
2021/09/21 04:31:45;;;;;;;0.40;0.20;;;11.30;99.90;;;;;;5032461;28;20380;-72
2021/09/21 04:34:14;;;;;;;0.40;0.20;;;11.30;99.90;;;;;;5032558;28;20863;-73
2021/09/21 04:36:41;;;;;;;0.60;0.60;;;11.30;99.90;;;;;;5030083;28;20798;-72
2021/09/21 04:39:07;;;;;;;0.40;0.20;;;11.20;99.90;;;;;;5029680;28;20391;-73
2021/09/21 04:41:33;;;;;;;0.40;0.20;;;11.20;99.90;;;;;;5021570;28;20470;-72
2021/09/21 04:43:59;;;;;;;0.40;0.20;;;11.20;99.90;;;;;;5025632;28;20395;-72
2021/09/21 04:46:25;;;;;;;0.40;0.20;;;11.20;99.90;;;;;;5023613;28;20436;-73
2021/09/21 04:48:51;;;;;;;0.40;0.20;;;11.20;99.90;;;;;;5023880;28;20387;-73
2021/09/21 04:51:17;;;;;;;0.40;0.20;;;11.30;99.90;;;;;;5004397;28;20786;-72
2021/09/21 04:53:42;;;;;;;0.50;0.35;;;11.50;99.90;;;;;;5028632;28;20391;-72
2021/09/21 04:56:08;;;;;;;0.40;0.20;;;11.40;99.90;;;;;;5032073;28;21099;-72
2021/09/21 04:58:34;;;;;;;0.40;0.20;;;11.40;99.90;;;;;;5031636;28;20733;-72
2021/09/21 05:00:59;;;;;;;0.40;0.20;;;11.50;99.90;;;;;;5031587;28;20407;-72
2021/09/21 05:03:25;;;;;;;0.40;0.20;;;11.50;99.90;;;;;;5031545;28;20449;-73
2021/09/21 05:05:51;;;;;;;0.70;0.60;;;11.50;99.90;;;;;;5032185;28;20389;-73
2021/09/21 05:08:17;;;;;;;0.40;0.20;;;11.60;99.90;;;;;;5031763;28;20387;-73
2021/09/21 05:10:43;;;;;;;0.40;0.20;;;11.50;99.90;;;;;;5032383;28;20524;-72
2021/09/21 05:13:08;;;;;;;0.40;0.20;;;11.50;99.90;;;;;;5032256;28;20449;-72
2021/09/21 05:15:34;;;;;;;0.40;0.30;;;11.70;99.90;;;;;;5031496;28;20379;-73
2021/09/21 05:17:59;;;;;;;0.40;0.30;;;11.80;99.90;;;;;;5032150;28;20390;-72
2021/09/21 05:20:25;;;;;;;0.40;0.20;;;11.70;99.90;;;;;;5031105;28;20415;-72
2021/09/21 05:22:53;;;;;;;0.40;0.20;;;11.90;99.90;;;;;;5032235;28;20395;-72
2021/09/21 05:25:19;;;;;;;0.40;0.30;;;11.90;99.90;;;;;;5030840;28;20415;-73
2021/09/21 05:27:45;;;;;;;0.40;0.20;;;12.00;99.90;;;;;;5022078;28;20384;-74
2021/09/21 05:30:12;;;;;;;0.40;0.20;;;12.10;99.90;;;;;;5013414;28;20787;-73
2021/09/21 05:32:38;;;;;;;0.40;0.20;;;12.10;99.90;;;;;;5031421;28;20465;-73
2021/09/21 05:35:04;;;;;;;0.40;0.30;;;12.10;99.90;;;;;;5030620;28;21009;-73
2021/09/21 05:37:31;;;;;;;0.40;0.20;;;12.20;99.90;;;;;;5030404;28;20383;-73
2021/09/21 05:39:57;;;;;;;0.40;0.30;;;12.20;99.90;;;;;;5020056;28;20417;-73
2021/09/21 05:42:24;;;;;;;0.40;0.20;;;12.30;99.90;;;;;;5023768;28;20407;-72
2021/09/21 05:44:50;;;;;;;0.40;0.30;;;12.10;99.90;;;;;;5018802;28;20427;-74
2021/09/21 05:47:15;;;;;;;0.40;0.30;;;12.10;99.90;;;;;;5024871;28;20865;-73
2021/09/21 05:49:41;;;;;;;0.40;0.20;;;11.90;99.90;;;;;;5020317;28;20765;-72
2021/09/21 05:52:07;;;;;;;0.40;0.20;;;12.00;99.90;;;;;;5023616;28;20896;-73
2021/09/21 05:54:32;;;;;;;0.40;0.20;;;12.10;99.90;;;;;;5023054;28;20383;-73
2021/09/21 05:56:59;;;;;;;0.40;0.20;;;12.10;99.90;;;;;;5022816;28;20387;-73
2021/09/21 05:59:24;;;;;;;0.40;0.20;;;12.30;99.90;;;;;;5011211;28;20393;-72
2021/09/21 06:01:50;;;;;;;0.40;0.30;;;12.30;99.90;;;;;;5019916;28;20934;-72
2021/09/21 06:04:16;;;;;;;0.40;0.20;;;12.20;99.90;;;;;;5021724;28;20399;-73
2021/09/21 06:06:41;;;;;;;0.40;0.20;;;12.20;99.90;;;;;;5022267;28;20445;-73
2021/09/21 06:09:07;;;;;;;0.40;0.20;;;12.20;99.90;;;;;;5024950;28;20486;-73
2021/09/21 06:11:33;;;;;;;0.40;0.20;;;12.10;99.90;;;;;;5020215;28;20520;-72
2021/09/21 06:14:02;;;;;;;0.40;0.20;;;12.10;99.90;;;;;;5019354;28;20417;-73
2021/09/21 06:16:28;;;;;;;0.40;0.22;;;12.20;99.90;;;;;;5020748;28;20446;-73
2021/09/21 06:18:55;;;;;;;0.40;0.20;;;12.40;99.90;;;;;;5004724;28;20476;-73
2021/09/21 06:21:22;;;;;;;0.40;0.30;;;12.30;99.90;;;;;;5021479;28;20832;-73
2021/09/21 06:23:49;;;;;;;0.40;0.20;;;12.40;99.90;;;;;;5024993;28;20717;-73
2021/09/21 06:26:14;;;;;;;0.40;0.20;;;12.50;99.90;;;;;;5020486;28;20384;-73
2021/09/21 06:28:40;;;;;;;0.40;0.20;;;12.40;99.90;;;;;;5021756;28;20401;-72
2021/09/21 06:31:06;;;;;;;0.40;0.20;;;12.50;99.90;;;;;;5020405;28;20400;-73
2021/09/21 06:33:31;;;;;;;0.60;0.60;;;12.40;99.90;;;;;;5019971;28;20527;-73
2021/09/21 06:35:57;;;;;;;0.40;0.20;;;12.40;99.90;;;;;;5022319;28;20463;-73
2021/09/21 06:38:23;;;;;;;0.40;0.20;;;12.40;99.90;;;;;;5019516;28;20391;-72
2021/09/21 06:40:49;;;;;;;0.40;0.20;;;12.50;99.90;;;;;;5021638;28;20509;-72
2021/09/21 06:43:15;;;;;;;0.40;0.20;;;12.50;99.90;;;;;;5024035;28;20445;-72
2021/09/21 06:45:40;;;;;;;0.40;0.20;;;12.60;99.90;;;;;;5011899;28;20467;-72
2021/09/21 06:48:07;;;;;;;0.40;0.20;;;12.70;99.90;;;;;;5010582;28;20383;-72
2021/09/21 06:50:33;;;;;;;0.40;0.25;;;12.70;99.90;;;;;;5010518;28;20853;-72
2021/09/21 06:52:59;;;;;;;0.40;0.20;;;12.80;99.90;;;;;;5013188;28;20475;-73
2021/09/21 06:55:24;;;;;;;0.40;0.20;;;12.80;99.90;;;;;;5021216;28;20481;-73
2021/09/21 06:57:53;;;;;;;0.40;0.20;;;12.70;99.90;;;;;;5018360;28;21060;-73
2021/09/21 07:00:20;;;;;;;0.40;0.20;;;12.80;99.90;;;;;;5017693;28;20515;-73
2021/09/21 07:02:50;;;;;;;0.40;0.20;;;13.00;99.90;;;;;;5013913;28;20397;-74
2021/09/21 07:05:15;;;;;;;0.40;0.20;;;13.10;99.90;;;;;;4997567;28;20410;-74
2021/09/21 07:07:50;;;;;;;0.40;0.30;;;13.20;99.90;;;;;;5019027;28;20387;-74
2021/09/21 07:10:17;;;;;;;0.40;0.20;;;13.00;99.90;;;;;;4992688;28;20393;-73
2021/09/21 07:12:43;;;;;;;0.40;0.20;;;13.00;99.90;;;;;;5009322;28;20421;-73
2021/09/21 07:15:10;;;;;;;0.40;0.30;;;13.00;99.90;;;;;;5008631;28;20405;-73
2021/09/21 07:17:36;;;;;;;0.40;0.20;;;13.00;99.90;;;;;;5012826;28;20762;-72
2021/09/21 07:20:03;;;;;;;0.40;0.30;;;13.00;99.90;;;;;;5013979;28;20459;-72
2021/09/21 07:22:30;;;;;;;0.40;0.20;;;13.10;99.90;;;;;;5012741;28;20979;-72
2021/09/21 07:24:55;;;;;;;0.40;0.20;;;13.00;99.90;;;;;;5013813;28;20707;-72
2021/09/21 07:27:21;;;;;;;0.40;0.20;;;12.80;99.90;;;;;;5012722;28;20392;-72
2021/09/21 07:29:48;;;;;;;0.40;0.20;;;12.80;99.90;;;;;;5013689;28;20420;-72
2021/09/21 07:32:14;;;;;;;0.40;0.20;;;12.80;99.90;;;;;;5013436;28;20385;-72
2021/09/21 07:34:40;;;;;;;0.40;0.30;;;12.90;99.90;;;;;;5012964;28;20780;-72
2021/09/21 07:37:06;;;;;;;0.40;0.20;;;12.90;99.90;;;;;;5013404;28;20460;-72
2021/09/21 07:39:31;;;;;;;0.40;0.20;;;12.90;99.90;;;;;;5012463;28;20476;-73
2021/09/21 07:41:57;;;;;;;0.40;0.20;;;12.90;99.90;;;;;;5013524;28;20399;-72
2021/09/21 07:44:23;;;;;;;0.40;0.20;;;12.90;99.90;;;;;;5013072;28;20385;-73
2021/09/21 07:46:49;;;;;;;0.40;0.30;;;13.00;99.90;;;;;;5013564;28;20459;-72
2021/09/21 07:49:15;;;;;;;0.40;0.22;;;12.90;99.90;;;;;;5013603;28;20524;-72
2021/09/21 07:51:41;;;;;;;0.40;0.20;;;13.00;99.90;;;;;;5012900;28;20479;-72
2021/09/21 07:54:08;;;;;;;0.40;0.20;;;13.10;99.90;;;;;;5013850;28;20380;-72
2021/09/21 07:56:34;;;;;;;0.40;0.20;;;13.00;99.90;;;;;;5012836;28;20403;-72
2021/09/21 07:59:02;;;;;;;0.40;0.20;;;12.80;99.90;;;;;;5013785;28;20377;-72
2021/09/21 08:01:28;;;;;;;0.40;0.20;;;13.10;99.90;;;;;;5012848;28;20757;-73
2021/09/21 08:03:55;;;;;;;0.40;0.30;;;13.10;99.90;;;;;;5013714;28;20885;-72
2021/09/21 08:06:20;;;;;;;0.40;0.30;;;13.20;99.90;;;;;;5014022;28;20385;-72
2021/09/21 08:08:46;;;;;;;0.40;0.20;;;13.50;99.90;;;;;;5013122;28;20854;-73
2021/09/21 08:11:12;;;;;;;0.40;0.30;;;13.70;99.90;;;;;;5013596;28;20452;-73
2021/09/21 08:13:38;;;;;;;0.40;0.20;;;13.40;99.90;;;;;;5012609;28;20453;-72
2021/09/21 08:16:04;;;;;;;0.40;0.20;;;13.50;99.90;;;;;;5013573;28;20416;-72
2021/09/21 08:18:29;;;;;;;0.40;0.20;;;13.50;99.90;;;;;;5012567;28;20385;-72
2021/09/21 08:20:55;;;;;;;0.40;0.30;;;13.70;99.90;;;;;;5013126;28;20496;-73
2021/09/21 08:23:21;;;;;;;0.40;0.20;;;13.80;99.90;;;;;;5013553;28;20431;-73
2021/09/21 08:25:47;;;;;;;0.40;0.20;;;13.50;99.90;;;;;;5012780;28;20472;-73
2021/09/21 08:28:12;;;;;;;0.40;0.20;;;13.70;99.90;;;;;;5012586;28;20381;-73
2021/09/21 08:30:38;;;;;;;0.40;0.20;;;13.50;99.90;;;;;;5012919;28;20532;-72
2021/09/21 08:33:04;;;;;;;0.40;0.20;;;13.20;99.90;;;;;;5013337;28;20381;-72
2021/09/21 08:35:30;;;;;;;0.40;0.30;;;13.00;99.90;;;;;;5012696;28;20496;-73
2021/09/21 08:37:57;;;;;;;0.40;0.30;;;12.70;99.90;;;;;;5013397;28;20456;-73
2021/09/21 08:40:23;;;;;;;0.40;0.20;;;12.90;99.90;;;;;;5013197;28;20424;-72
2021/09/21 08:42:48;;;;;;;0.40;0.20;;;12.90;99.90;;;;;;5012237;28;20431;-73
2021/09/21 08:45:14;;;;;;;0.40;0.20;;;12.90;99.90;;;;;;5012875;28;20905;-73
2021/09/21 08:47:41;;;;;;;0.40;0.20;;;12.80;99.90;;;;;;5012176;28;20467;-73
2021/09/21 08:50:09;;;;;;;0.40;0.30;;;12.90;99.90;;;;;;5013079;28;20400;-71
2021/09/21 08:52:38;;;;;;;0.40;0.30;;;12.90;99.90;;;;;;5012257;28;20377;-73
2021/09/21 08:55:07;;;;;;;0.40;0.20;;;12.80;99.90;;;;;;5012899;28;20389;-73
2021/09/21 08:57:33;;;;;;;0.40;0.30;;;12.80;99.90;;;;;;5012150;28;20385;-73
2021/09/21 08:59:59;;;;;;;0.40;0.20;;;12.60;99.90;;;;;;5012694;28;20412;-73
2021/09/21 09:02:25;;;;;;;0.40;0.30;;;12.80;99.90;;;;;;5012739;28;20389;-73
2021/09/21 09:05:03;;;;;;;0.40;0.30;;;12.90;99.90;;;;;;5012088;28;20377;-73
2021/09/21 09:07:35;;;;;;;0.40;0.20;;;13.20;99.90;;;;;;5021012;28;20395;-73
2021/09/21 09:10:05;;;;;;;0.40;0.30;;;12.80;99.90;;;;;;5032503;28;20744;-73
2021/09/21 09:12:32;;;;;;;0.40;0.20;;;13.10;99.90;;;;;;5031729;28;20418;-73
2021/09/21 09:15:07;;;;;;;0.40;0.30;;;13.00;99.90;;;;;;5031915;28;20872;-73
2021/09/21 09:17:32;;;;;;;0.40;0.30;;;13.00;99.90;;;;;;5031605;28;20728;-73
2021/09/21 09:19:58;;;;;;;0.40;0.20;;;12.90;99.90;;;;;;5032231;28;20429;-73
2021/09/21 09:22:26;;;;;;;0.40;0.20;;;13.00;99.90;;;;;;5032180;28;20470;-72
2021/09/21 09:24:59;;;;;;;0.40;0.20;;;13.20;99.90;;;;;;5013892;28;20522;-73
2021/09/21 09:27:42;;;;;;;0.40;0.30;;;13.20;99.90;;;;;;5032023;28;20407;-73
2021/09/21 09:30:14;;;;;;;0.88;0.35;;;13.20;99.90;;;;;;5032124;28;20509;-74
2021/09/21 09:32:47;;;;;;;0.40;0.20;;;13.50;99.90;;;;;;5013589;28;20441;-73
2021/09/21 09:35:31;;;;;;;0.40;0.20;;;13.30;99.90;;;;;;5032061;28;20383;-73
2021/09/21 09:38:01;;;;;;;0.40;0.20;;;13.80;99.90;;;;;;5031744;28;20445;-73
2021/09/21 09:40:28;;;;;;;0.40;0.20;;;13.60;99.90;;;;;;5031432;28;20814;-73
2021/09/21 09:42:54;;;;;;;1.40;0.80;;;13.90;99.90;;;;;;5031780;28;20457;-74
2021/09/21 09:45:33;;;;;;;0.40;0.30;;;14.10;99.90;;;;;;5031866;28;20427;-73
2021/09/21 09:47:59;;;;;;;0.40;0.30;;;14.00;99.90;;;;;;5031630;28;20376;-74
2021/09/21 09:50:31;;;;;;;0.40;0.20;;;14.00;99.90;;;;;;5031875;28;20391;-74
2021/09/21 09:53:16;;;;;;;0.40;0.20;;;14.30;99.90;;;;;;5031839;28;20387;-74
2021/09/21 09:55:45;;;;;;;0.40;0.30;;;14.40;99.90;;;;;;5031208;28;20843;-74
2021/09/21 09:58:12;;;;;;;0.40;0.20;;;14.50;99.90;;;;;;5030970;28;20798;-74
2021/09/21 10:00:38;;;;;;;0.40;0.30;;;14.60;99.90;;;;;;5030742;28;20641;-74
2021/09/21 10:03:06;;;;;;;0.40;0.20;;;14.50;99.90;;;;;;5031555;28;20471;-74
2021/09/21 10:05:34;;;;;;;0.40;0.40;;;14.40;99.90;;;;;;5031016;28;20390;-74
2021/09/21 10:08:00;;;;;;;0.40;0.20;;;14.30;99.90;;;;;;5017987;28;20443;-74
2021/09/21 10:10:27;;;;;;;0.40;0.30;;;14.50;99.90;;;;;;5011834;28;20416;-74
2021/09/21 10:12:55;;;;;;;0.40;0.20;;;14.40;99.90;;;;;;4993363;28;20408;-73
2021/09/21 10:15:21;;;;;;;0.40;0.30;;;14.20;99.90;;;;;;5011628;28;20734;-74
2021/09/21 10:17:55;;;;;;;0.40;0.30;;;14.10;99.90;;;;;;5011113;28;20388;-74
2021/09/21 10:20:23;;;;;;;0.40;0.20;;;14.10;99.90;;;;;;5011601;28;20486;-73
2021/09/21 10:22:55;;;;;;;0.40;0.20;;;14.30;99.90;;;;;;5011056;28;20389;-74
2021/09/21 10:25:49;;;;;;;0.40;0.20;;;14.20;99.90;;;;;;5011208;28;20866;-74
2021/09/21 10:28:18;;;;;;;0.40;0.20;;;14.30;99.90;;;;;;5009338;28;20475;-74
2021/09/21 10:30:57;;;;;;;0.40;0.30;;;14.40;99.90;;;;;;5010958;28;20385;-74
2021/09/21 10:33:24;;;;;;;0.40;0.30;;;14.50;99.90;;;;;;5011313;28;20424;-74
2021/09/21 10:35:52;;;;;;;0.40;0.30;;;14.30;99.90;;;;;;5011090;28;20385;-73
2021/09/21 10:38:19;;;;;;;0.40;0.30;;;14.30;99.90;;;;;;5011456;28;20396;-74
2021/09/21 10:40:48;;;;;;;0.40;0.20;;;14.40;99.90;;;;;;5010804;28;20409;-74
2021/09/21 10:43:22;;;;;;;0.40;0.20;;;14.50;99.90;;;;;;5011546;28;20408;-74
2021/09/21 10:45:49;;;;;;;0.40;0.20;;;14.60;99.90;;;;;;5010473;28;20755;-74
2021/09/21 10:48:21;;;;;;;0.93;0.82;;;14.40;99.90;;;;;;5011408;28;20373;-74
2021/09/21 10:50:58;;;;;;;0.40;0.20;;;14.60;99.90;;;;;;5012170;28;20384;-74
2021/09/21 10:53:25;;;;;;;0.40;0.30;;;14.50;99.90;;;;;;5015631;28;20384;-74
2021/09/21 10:56:03;;;;;;;0.40;0.20;;;14.70;99.90;;;;;;5014580;28;20447;-74
2021/09/21 10:58:29;;;;;;;0.40;0.30;;;14.40;99.90;;;;;;5015125;28;20474;-74
2021/09/21 11:00:56;;;;;;;0.40;0.30;;;14.50;99.90;;;;;;5014435;28;20419;-74
2021/09/21 11:03:24;;;;;;;0.40;0.30;;;14.50;99.90;;;;;;5014901;28;20719;-74
2021/09/21 11:05:50;;;;;;;0.40;0.20;;;14.70;99.90;;;;;;5013949;28;20877;-74
2021/09/21 11:08:17;;;;;;;0.40;0.20;;;14.90;99.90;;;;;;5030268;28;20391;-74
2021/09/21 11:10:44;;;;;;;0.40;0.30;;;14.90;99.90;;;;;;5034128;28;20391;-74
2021/09/21 11:13:17;;;;;;;0.40;0.20;;;15.00;99.90;;;;;;5034601;28;20403;-74
2021/09/21 11:15:44;;;;;;;0.40;0.20;;;14.90;99.90;;;;;;5033024;28;20395;-75
2021/09/21 11:18:20;;;;;;;0.40;0.20;;;15.00;99.90;;;;;;5034281;28;20383;-74
2021/09/21 11:20:51;;;;;;;0.40;0.30;;;15.00;99.90;;;;;;5016131;28;20461;-74
2021/09/21 11:23:20;;;;;;;0.40;0.20;;;15.10;99.90;;;;;;5034663;28;20461;-74
2021/09/21 11:25:47;;;;;;;0.40;0.30;;;15.20;99.90;;;;;;5034092;28;20727;-75
2021/09/21 11:28:16;;;;;;;0.40;0.30;;;15.60;99.90;;;;;;5034435;28;20386;-74
2021/09/21 11:30:43;;;;;;;0.40;0.30;;;15.50;99.90;;;;;;5016569;28;20442;-73
2021/09/21 11:33:16;;;;;;;0.40;0.20;;;15.60;99.90;;;;;;5034208;28;20386;-73
2021/09/21 11:35:50;;;;;;;0.40;0.30;;;15.30;99.90;;;;;;5033874;28;20398;-74
2021/09/21 11:38:18;;;;;;;0.40;0.30;;;15.70;99.90;;;;;;5016542;28;20430;-73
2021/09/21 11:40:45;;;;;;;0.40;0.30;;;15.60;99.90;;;;;;5032892;28;20422;-72
2021/09/21 11:43:13;;;;;;;0.40;0.28;;;15.70;99.90;;;;;;5033345;28;20399;-73
2021/09/21 11:45:41;;;;;;;0.50;0.50;;;15.60;99.90;;;;;;5033352;28;20399;-74
2021/09/21 11:48:09;;;;;;;0.40;0.30;;;15.80;99.90;;;;;;5033655;28;20886;-74
2021/09/21 11:50:37;;;;;;;0.40;0.20;;;15.70;99.90;;;;;;5033218;28;20402;-73
2021/09/21 11:53:05;;;;;;;0.40;0.30;;;15.40;99.90;;;;;;5031946;28;20379;-74
2021/09/21 11:55:34;;;;;;;0.40;0.20;;;15.20;99.90;;;;;;5028166;28;20382;-75
2021/09/21 11:58:02;;;;;;;1.30;0.80;;;15.30;99.90;;;;;;5048771;28;20959;-74
2021/09/21 12:00:30;;;;;;;0.40;0.20;;;15.80;99.90;;;;;;5029781;28;20416;-75
2021/09/21 12:03:00;;;;;;;0.40;0.20;;;16.40;99.90;;;;;;5010668;28;20421;-76
2021/09/21 12:05:26;;;;;;;0.40;0.20;;;16.60;99.90;;;;;;5011812;28;20385;-76
2021/09/21 12:07:53;;;;;;;0.40;0.30;;;16.50;99.90;;;;;;5011864;28;20393;-76
2021/09/21 12:10:20;;;;;;;0.40;0.30;;;16.80;99.90;;;;;;5012646;28;20404;-76
2021/09/21 12:12:57;;;;;;;0.40;0.20;;;16.70;99.90;;;;;;5011512;28;20417;-76
2021/09/21 12:15:23;;;;;;;0.40;0.30;;;17.00;99.90;;;;;;5012052;28;20385;-76
2021/09/21 12:17:51;;;;;;;0.40;0.20;;;17.90;99.90;;;;;;5011406;28;20381;-76
2021/09/21 12:20:24;;;;;;;0.40;0.28;;;18.50;99.90;;;;;;5012308;28;20416;-76
2021/09/21 12:22:52;;;;;;;0.40;0.30;;;19.60;99.90;;;;;;5011395;28;20796;-75
2021/09/21 12:25:20;;;;;;;0.40;0.30;;;19.70;99.90;;;;;;5011685;28;20443;-76
2021/09/21 12:27:50;;;;;;;0.40;0.30;;;19.50;99.90;;;;;;5011445;28;20413;-75
2021/09/21 12:30:15;;;;;;;0.40;0.30;;;19.50;99.90;;;;;;5011998;28;20425;-75
2021/09/21 12:32:41;;;;;;;0.40;0.30;;;19.50;99.90;;;;;;5011380;28;20449;-77
2021/09/21 12:35:28;;;;;;;0.40;0.20;;;18.50;99.90;;;;;;5011540;28;20385;-76
2021/09/21 12:38:10;;;;;;;0.40;0.30;;;19.30;99.90;;;;;;5011317;28;20405;-76
2021/09/21 12:40:57;;;;;;;0.40;0.30;;;18.60;99.90;;;;;;5011794;28;20416;-76
2021/09/21 12:43:32;;;;;;;0.40;0.22;;;19.30;99.90;;;;;;5012077;28;20479;-75
2021/09/21 12:46:04;;;;;;;0.40;0.30;;;19.30;99.90;;;;;;5010273;28;20393;-73
2021/09/21 12:48:33;;;;;;;0.40;0.20;;;18.60;99.90;;;;;;5011529;28;20917;-73
2021/09/21 12:51:01;;;;;;;0.40;0.30;;;18.50;99.90;;;;;;5010686;28;20407;-75
2021/09/21 12:53:27;;;;;;;0.40;0.20;;;18.00;99.90;;;;;;5015286;28;20399;-74
2021/09/21 12:56:08;;;;;;;0.40;0.20;;;18.00;99.90;;;;;;5030196;28;20437;-75
2021/09/21 12:58:36;;;;;;;0.40;0.30;;;18.00;99.90;;;;;;5031170;28;20387;-75
2021/09/21 13:01:08;;;;;;;0.40;0.30;;;17.70;99.90;;;;;;5030038;28;20507;-76
2021/09/21 13:03:36;;;;;;;0.40;0.30;;;18.30;99.90;;;;;;5031370;28;20454;-76
2021/09/21 13:06:06;;;;;;;0.40;0.30;;;18.30;99.90;;;;;;5030043;28;20474;-76